Time;durP1;ratioP1;P1;durP2;ratioP2;P2;SDS_P1;SDS_P2;PMS_P1;PMS_P2;Temp;Humidity;BMP_temperature;BMP_pressure;BME280_temperature;BME280_humidity;BME280_pressure;Samples;Min_cycle;Max_cycle;Signal;HPM_P1;HPM_P2
2023/12/20 00:00:08;;;;;;;5.10;3.20;;;8.60;45.60;;;;;;5036191;28;20214;-81
2023/12/20 00:02:35;;;;;;;3.83;3.10;;;8.60;46.00;;;;;;5035891;28;20192;-81
2023/12/20 00:05:05;;;;;;;4.35;3.15;;;8.60;46.10;;;;;;5036209;28;20196;-82
2023/12/20 00:07:38;;;;;;;4.97;3.10;;;8.60;45.80;;;;;;5036182;28;20199;-81
2023/12/20 00:10:09;;;;;;;5.28;3.70;;;8.50;45.90;;;;;;5045813;28;20176;-79
2023/12/20 00:12:36;;;;;;;7.40;3.17;;;8.50;46.10;;;;;;5055771;28;20225;-80
2023/12/20 00:15:03;;;;;;;5.60;3.83;;;8.50;46.30;;;;;;5055607;28;20664;-80
2023/12/20 00:17:30;;;;;;;5.30;3.20;;;8.50;46.60;;;;;;5055870;28;20226;-79
2023/12/20 00:19:57;;;;;;;5.82;3.60;;;8.50;46.70;;;;;;5055858;28;20301;-80
2023/12/20 00:22:29;;;;;;;5.88;3.40;;;8.50;46.90;;;;;;5056020;28;20191;-82
2023/12/20 00:25:01;;;;;;;5.85;3.30;;;8.50;47.10;;;;;;5056076;28;20471;-81
2023/12/20 00:27:28;;;;;;;6.68;3.72;;;8.40;47.10;;;;;;5056006;28;20214;-82
2023/12/20 00:29:58;;;;;;;4.18;2.88;;;8.40;47.10;;;;;;5055687;28;20199;-83
2023/12/20 00:32:25;;;;;;;5.35;3.80;;;8.40;47.10;;;;;;5056128;28;20236;-82
2023/12/20 00:34:53;;;;;;;5.85;3.20;;;8.40;47.10;;;;;;5055419;28;20230;-82
2023/12/20 00:37:20;;;;;;;5.13;3.28;;;8.50;47.20;;;;;;5054763;28;20286;-82
2023/12/20 00:39:47;;;;;;;5.50;3.75;;;8.40;47.50;;;;;;5055509;28;20261;-82
2023/12/20 00:42:16;;;;;;;5.47;3.42;;;8.40;47.70;;;;;;5055162;28;20282;-81
2023/12/20 00:44:43;;;;;;;4.65;2.85;;;8.40;47.60;;;;;;5054881;28;20196;-82
2023/12/20 00:47:10;;;;;;;4.47;2.97;;;8.40;47.80;;;;;;5054828;28;20261;-82
2023/12/20 00:49:40;;;;;;;5.07;3.22;;;8.40;47.90;;;;;;5055406;28;20199;-81
2023/12/20 00:52:07;;;;;;;5.20;3.10;;;8.40;47.80;;;;;;5054986;28;20218;-82
2023/12/20 00:54:35;;;;;;;3.95;2.50;;;8.40;47.80;;;;;;5054410;28;20203;-82
2023/12/20 00:57:05;;;;;;;4.72;3.60;;;8.30;47.90;;;;;;5055303;28;20198;-80
2023/12/20 00:59:34;;;;;;;5.88;2.70;;;8.30;47.80;;;;;;5054819;28;20685;-82
2023/12/20 01:02:01;;;;;;;4.15;3.35;;;8.30;47.90;;;;;;5054977;28;20642;-85
2023/12/20 01:04:35;;;;;;;8.25;3.58;;;8.30;48.00;;;;;;5054942;28;20546;-83
2023/12/20 01:07:02;;;;;;;5.10;3.53;;;8.20;47.90;;;;;;5055080;28;20189;-84
2023/12/20 01:09:29;;;;;;;5.25;3.30;;;8.30;48.00;;;;;;5054627;28;20230;-85
2023/12/20 01:11:57;;;;;;;6.10;3.70;;;8.30;47.70;;;;;;5054962;28;20273;-84
2023/12/20 01:14:29;;;;;;;4.82;2.92;;;8.30;47.70;;;;;;5054497;28;20732;-84
2023/12/20 01:16:58;;;;;;;5.60;3.88;;;8.30;47.80;;;;;;5054570;28;20256;-84
2023/12/20 01:19:30;;;;;;;5.70;3.30;;;8.30;48.20;;;;;;5054673;28;20233;-84
2023/12/20 01:22:02;;;;;;;3.85;3.00;;;8.30;48.60;;;;;;5053925;28;20202;-84
2023/12/20 01:24:37;;;;;;;4.22;3.00;;;8.30;48.80;;;;;;5054577;28;20179;-83
2023/12/20 01:27:05;;;;;;;4.95;3.38;;;8.20;47.90;;;;;;5054700;28;20232;-83
2023/12/20 01:29:32;;;;;;;3.72;2.53;;;8.20;47.90;;;;;;5053181;28;20222;-83
2023/12/20 01:32:00;;;;;;;5.65;2.90;;;8.20;48.00;;;;;;5053131;28;20703;-82
2023/12/20 01:34:27;;;;;;;5.47;3.10;;;8.20;48.20;;;;;;5054651;28;20451;-81
2023/12/20 01:36:56;;;;;;;4.95;3.22;;;8.10;48.20;;;;;;5053938;28;20191;-81
2023/12/20 01:39:23;;;;;;;4.53;2.50;;;8.10;48.30;;;;;;5053278;28;20214;-81
2023/12/20 01:41:55;;;;;;;5.72;3.38;;;8.10;48.40;;;;;;5054108;28;20194;-81
2023/12/20 01:44:22;;;;;;;4.82;3.30;;;8.10;48.50;;;;;;5053304;28;20207;-80
2023/12/20 01:46:51;;;;;;;6.32;3.92;;;8.10;48.70;;;;;;5053372;28;20735;-81
2023/12/20 01:49:19;;;;;;;4.88;3.38;;;8.20;48.80;;;;;;5053686;28;20260;-81
2023/12/20 01:51:48;;;;;;;4.45;2.85;;;8.20;48.30;;;;;;5054084;28;20194;-81
2023/12/20 01:54:16;;;;;;;5.60;3.35;;;8.30;48.10;;;;;;5053839;28;20195;-83
2023/12/20 01:56:49;;;;;;;4.80;3.28;;;8.30;47.90;;;;;;5054289;28;20685;-83
2023/12/20 01:59:17;;;;;;;4.70;2.90;;;8.30;48.00;;;;;;5053814;28;20229;-83
2023/12/20 02:01:49;;;;;;;4.15;2.70;;;8.30;47.90;;;;;;5054352;28;20199;-83
2023/12/20 02:04:20;;;;;;;4.20;2.70;;;8.20;47.70;;;;;;5053355;28;20684;-83
2023/12/20 02:06:48;;;;;;;7.00;3.78;;;8.20;47.80;;;;;;5054030;28;20221;-83
2023/12/20 02:09:16;;;;;;;6.20;3.92;;;8.20;47.80;;;;;;5053684;28;20207;-83
2023/12/20 02:11:44;;;;;;;7.85;4.60;;;8.30;47.90;;;;;;5053545;28;20198;-83
2023/12/20 02:14:13;;;;;;;5.22;3.22;;;8.30;47.90;;;;;;5053595;28;20719;-84
2023/12/20 02:16:40;;;;;;;5.05;2.83;;;8.30;47.90;;;;;;5053847;28;20191;-83
2023/12/20 02:19:15;;;;;;;6.10;2.80;;;8.30;47.90;;;;;;5053365;28;20217;-83
2023/12/20 02:21:43;;;;;;;4.50;3.10;;;8.40;47.80;;;;;;5054005;28;20585;-83
2023/12/20 02:24:12;;;;;;;5.00;2.60;;;8.40;48.00;;;;;;5053501;28;20233;-83
2023/12/20 02:26:40;;;;;;;3.53;2.38;;;8.30;48.10;;;;;;5052871;28;20187;-83
2023/12/20 02:29:07;;;;;;;4.05;2.53;;;8.30;48.30;;;;;;5052471;28;20199;-83
2023/12/20 02:31:34;;;;;;;5.20;3.22;;;8.40;48.20;;;;;;5052428;28;20187;-83
2023/12/20 02:34:01;;;;;;;4.78;2.50;;;8.30;48.20;;;;;;5052077;28;20222;-83
2023/12/20 02:36:28;;;;;;;5.55;2.75;;;8.30;48.40;;;;;;5053080;28;20285;-83
2023/12/20 02:38:56;;;;;;;4.65;2.45;;;8.30;48.60;;;;;;5053631;28;22169;-82
2023/12/20 02:41:25;;;;;;;3.10;2.30;;;8.40;48.60;;;;;;5053174;28;20703;-82
2023/12/20 02:43:52;;;;;;;4.05;2.65;;;8.30;48.70;;;;;;5053699;28;20195;-82
2023/12/20 02:46:19;;;;;;;5.07;3.10;;;8.20;48.60;;;;;;5053499;28;20246;-82
2023/12/20 02:48:47;;;;;;;4.30;2.50;;;8.20;48.80;;;;;;5052598;28;20194;-82
2023/12/20 02:51:14;;;;;;;3.92;2.20;;;8.10;49.20;;;;;;5053539;28;20191;-81
2023/12/20 02:53:42;;;;;;;4.45;2.70;;;8.10;49.40;;;;;;5053454;28;20210;-82
2023/12/20 02:56:10;;;;;;;3.25;1.85;;;8.10;49.70;;;;;;5052789;28;20217;-81
2023/12/20 02:58:37;;;;;;;3.83;2.10;;;8.10;50.00;;;;;;5053897;28;20191;-82
2023/12/20 03:01:04;;;;;;;2.70;1.65;;;8.10;50.30;;;;;;5057422;28;20214;-81
2023/12/20 03:03:32;;;;;;;3.50;1.70;;;8.10;50.50;;;;;;5057223;28;20191;-81
2023/12/20 03:05:59;;;;;;;3.15;1.77;;;8.10;50.80;;;;;;5057075;28;20244;-82
2023/12/20 03:08:26;;;;;;;3.72;1.85;;;8.10;51.10;;;;;;5055816;28;20269;-82
2023/12/20 03:10:54;;;;;;;3.17;1.80;;;8.10;51.30;;;;;;5056944;28;20206;-82
2023/12/20 03:13:22;;;;;;;3.00;1.60;;;8.10;51.50;;;;;;5057041;28;20186;-81
2023/12/20 03:15:51;;;;;;;3.33;1.58;;;8.10;51.70;;;;;;5056885;28;20222;-81
2023/12/20 03:18:18;;;;;;;4.00;1.83;;;8.10;52.10;;;;;;5057176;28;20202;-81
2023/12/20 03:20:50;;;;;;;2.53;1.42;;;8.20;52.40;;;;;;5056751;28;20680;-81
2023/12/20 03:23:19;;;;;;;2.60;1.50;;;8.20;52.90;;;;;;5057125;28;20179;-82
2023/12/20 03:25:48;;;;;;;2.80;1.38;;;8.20;53.00;;;;;;5056786;28;20720;-81
2023/12/20 03:28:17;;;;;;;2.55;1.38;;;8.30;53.20;;;;;;5055767;28;20186;-81
2023/12/20 03:30:51;;;;;;;3.30;1.58;;;8.30;53.40;;;;;;5057024;28;20199;-82
2023/12/20 03:33:18;;;;;;;3.53;1.92;;;8.30;53.40;;;;;;5057047;28;20222;-82
2023/12/20 03:35:45;;;;;;;3.40;1.77;;;8.40;53.60;;;;;;5056859;28;20286;-82
2023/12/20 03:38:12;;;;;;;3.05;1.50;;;8.40;54.30;;;;;;5056848;28;20222;-81
2023/12/20 03:40:39;;;;;;;2.92;1.70;;;8.40;54.40;;;;;;5056369;28;20680;-81
2023/12/20 03:43:08;;;;;;;4.80;1.60;;;8.50;54.40;;;;;;5056433;28;20191;-81
2023/12/20 03:45:35;;;;;;;3.85;2.00;;;8.50;54.30;;;;;;5056791;28;20248;-81
2023/12/20 03:48:04;;;;;;;2.80;1.73;;;8.50;54.30;;;;;;5056831;28;20241;-81
2023/12/20 03:50:32;;;;;;;3.20;1.60;;;8.60;54.40;;;;;;5056050;28;20226;-81
2023/12/20 03:53:00;;;;;;;2.70;1.35;;;8.60;54.10;;;;;;5056228;28;20653;-81
2023/12/20 03:55:29;;;;;;;3.55;2.05;;;8.60;54.20;;;;;;5056545;28;20210;-81
2023/12/20 03:57:58;;;;;;;2.88;1.20;;;8.60;54.40;;;;;;5056538;28;20647;-82
2023/12/20 04:00:25;;;;;;;3.17;1.80;;;8.70;54.70;;;;;;5056346;28;20214;-81
2023/12/20 04:02:52;;;;;;;3.08;1.60;;;8.70;54.90;;;;;;5056445;28;20281;-80
2023/12/20 04:05:21;;;;;;;2.70;1.83;;;8.70;55.20;;;;;;5056542;28;20278;-80
2023/12/20 04:07:48;;;;;;;4.72;2.28;;;8.70;55.60;;;;;;5056342;28;20226;-81
2023/12/20 04:10:17;;;;;;;3.20;1.98;;;8.70;56.20;;;;;;5055313;28;20256;-81
2023/12/20 04:12:47;;;;;;;2.83;1.58;;;8.70;56.90;;;;;;5055912;28;20190;-81
2023/12/20 04:15:14;;;;;;;3.70;1.80;;;8.80;58.30;;;;;;5056203;28;20206;-81
2023/12/20 04:17:41;;;;;;;3.05;1.60;;;8.80;59.10;;;;;;5055438;28;20661;-81
2023/12/20 04:20:09;;;;;;;2.30;1.30;;;8.80;59.30;;;;;;5055868;28;20246;-81
2023/12/20 04:22:38;;;;;;;3.60;1.83;;;8.80;60.00;;;;;;5055322;28;20257;-81
2023/12/20 04:25:05;;;;;;;3.00;1.20;;;8.80;61.30;;;;;;5055935;28;20218;-81
2023/12/20 04:27:36;;;;;;;2.40;1.30;;;8.80;62.40;;;;;;5055868;28;20278;-82
2023/12/20 04:30:04;;;;;;;3.67;1.27;;;8.80;63.60;;;;;;5055903;28;20187;-81
2023/12/20 04:32:36;;;;;;;4.03;1.58;;;8.80;64.40;;;;;;5055444;28;20191;-82
2023/12/20 04:35:07;;;;;;;2.65;1.40;;;8.80;64.90;;;;;;5055502;28;20275;-81
2023/12/20 04:37:34;;;;;;;2.70;1.35;;;8.80;65.20;;;;;;5054969;28;20215;-82
2023/12/20 04:40:03;;;;;;;2.60;1.50;;;8.80;65.30;;;;;;5055698;28;20643;-81
2023/12/20 04:42:30;;;;;;;2.78;1.30;;;8.90;65.80;;;;;;5055616;28;20238;-82
2023/12/20 04:44:57;;;;;;;2.33;1.30;;;8.80;65.90;;;;;;5055620;28;20222;-82
2023/12/20 04:47:24;;;;;;;2.70;1.48;;;8.90;66.00;;;;;;5055257;28;20757;-81
2023/12/20 04:49:51;;;;;;;3.35;1.70;;;8.80;66.00;;;;;;5055522;28;20238;-81
2023/12/20 04:52:20;;;;;;;3.13;1.27;;;8.80;66.20;;;;;;5055071;28;20237;-80
2023/12/20 04:54:47;;;;;;;2.60;1.60;;;8.80;65.60;;;;;;5055104;28;20195;-80
2023/12/20 04:57:16;;;;;;;2.40;1.45;;;8.80;66.50;;;;;;5055337;28;20253;-81
2023/12/20 04:59:43;;;;;;;2.50;1.30;;;8.80;66.60;;;;;;5055277;28;20222;-79
2023/12/20 05:02:10;;;;;;;3.92;1.50;;;8.80;66.50;;;;;;5055416;28;20277;-80
2023/12/20 05:04:37;;;;;;;4.05;2.20;;;8.80;66.30;;;;;;5055171;28;20217;-80
2023/12/20 05:07:07;;;;;;;2.78;1.50;;;8.90;66.20;;;;;;5054429;28;20700;-80
2023/12/20 05:09:34;;;;;;;2.30;1.38;;;8.90;66.20;;;;;;5055295;28;20175;-80
2023/12/20 05:12:01;;;;;;;2.90;1.40;;;8.90;66.00;;;;;;5054325;28;20223;-80
2023/12/20 05:14:30;;;;;;;2.20;1.20;;;8.90;65.90;;;;;;5055059;28;20191;-80
2023/12/20 05:16:57;;;;;;;2.85;1.67;;;8.90;65.60;;;;;;5054927;28;20541;-80
2023/12/20 05:19:24;;;;;;;5.65;1.58;;;9.00;65.60;;;;;;5054973;28;20194;-80
2023/12/20 05:21:56;;;;;;;2.80;1.30;;;9.00;65.50;;;;;;5053566;28;20218;-80
2023/12/20 05:24:23;;;;;;;3.00;1.55;;;9.00;65.60;;;;;;5054492;28;20175;-80
2023/12/20 05:26:50;;;;;;;2.63;1.55;;;9.00;65.60;;;;;;5054902;28;20186;-80
2023/12/20 05:29:17;;;;;;;4.68;1.75;;;9.00;65.70;;;;;;5054089;28;20191;-80
2023/12/20 05:31:46;;;;;;;2.17;1.40;;;9.00;65.60;;;;;;5054417;28;20195;-80
2023/12/20 05:34:13;;;;;;;3.72;1.88;;;9.00;65.80;;;;;;5054380;28;20190;-80
2023/12/20 05:36:40;;;;;;;3.63;2.08;;;9.00;66.90;;;;;;5054373;28;20260;-80
2023/12/20 05:39:07;;;;;;;4.07;1.90;;;9.00;66.30;;;;;;5054809;28;20233;-80
2023/12/20 05:41:36;;;;;;;2.70;1.52;;;9.00;66.80;;;;;;5054608;28;20321;-80
2023/12/20 05:44:03;;;;;;;2.63;1.85;;;9.00;66.90;;;;;;5054207;28;20225;-80
2023/12/20 05:46:30;;;;;;;2.50;1.50;;;8.90;67.30;;;;;;5053955;28;20685;-80
2023/12/20 05:48:59;;;;;;;3.13;2.22;;;8.90;67.40;;;;;;5053630;28;20680;-81
2023/12/20 05:51:28;;;;;;;3.08;1.90;;;8.80;67.90;;;;;;5054004;28;20559;-82
2023/12/20 05:53:56;;;;;;;2.63;1.70;;;8.80;68.20;;;;;;5053979;28;20634;-81
2023/12/20 05:56:23;;;;;;;3.10;1.60;;;8.80;68.40;;;;;;5053536;28;20187;-81
2023/12/20 05:58:50;;;;;;;2.75;1.30;;;8.70;68.80;;;;;;5053847;28;20198;-82
2023/12/20 06:01:17;;;;;;;4.00;2.20;;;8.70;69.90;;;;;;5053386;28;20284;-81
2023/12/20 06:03:50;;;;;;;2.83;1.70;;;8.60;69.60;;;;;;5053711;28;20187;-83
2023/12/20 06:06:18;;;;;;;2.92;1.75;;;8.50;69.70;;;;;;5053201;28;20183;-84
2023/12/20 06:08:46;;;;;;;12.57;4.63;;;8.40;69.60;;;;;;5053893;28;20190;-84
2023/12/20 06:11:17;;;;;;;3.78;1.80;;;8.40;69.80;;;;;;5053614;28;20260;-82
2023/12/20 06:13:44;;;;;;;3.05;1.80;;;8.30;69.90;;;;;;5054048;28;20225;-81
2023/12/20 06:16:16;;;;;;;3.20;1.60;;;8.30;70.20;;;;;;5053567;28;20230;-81
2023/12/20 06:18:45;;;;;;;4.03;2.28;;;8.20;70.50;;;;;;5053667;28;20226;-81
2023/12/20 06:21:12;;;;;;;3.95;1.73;;;8.20;70.90;;;;;;5053378;28;20684;-81
2023/12/20 06:23:41;;;;;;;2.60;1.35;;;8.10;71.10;;;;;;5054128;28;20195;-81
2023/12/20 06:26:08;;;;;;;2.97;2.08;;;8.10;71.00;;;;;;5051157;28;20699;-81
2023/12/20 06:28:35;;;;;;;4.10;1.67;;;8.10;71.10;;;;;;5053242;28;20254;-81
2023/12/20 06:31:04;;;;;;;3.10;1.45;;;8.10;71.00;;;;;;5053050;28;20282;-82
2023/12/20 06:33:31;;;;;;;4.50;2.03;;;8.10;71.10;;;;;;5052874;28;20552;-81
2023/12/20 06:35:58;;;;;;;3.20;1.55;;;8.10;70.90;;;;;;5052119;28;20365;-81
2023/12/20 06:38:27;;;;;;;2.72;1.70;;;8.00;70.60;;;;;;5052532;28;20229;-81
2023/12/20 06:40:57;;;;;;;4.00;2.30;;;8.00;70.90;;;;;;5053183;28;20210;-81
2023/12/20 06:43:24;;;;;;;4.90;3.22;;;8.00;71.10;;;;;;5053020;28;20199;-81
2023/12/20 06:45:54;;;;;;;4.50;2.50;;;8.00;71.30;;;;;;5052798;28;20613;-82
2023/12/20 06:48:21;;;;;;;3.75;2.22;;;8.00;71.30;;;;;;5052679;28;20205;-81
2023/12/20 06:50:49;;;;;;;3.42;2.30;;;7.90;71.40;;;;;;5034851;28;20277;-81
2023/12/20 06:53:17;;;;;;;5.35;1.80;;;7.90;71.60;;;;;;5052928;28;20195;-82
2023/12/20 06:55:45;;;;;;;3.13;1.40;;;7.90;71.70;;;;;;5052352;28;20260;-82
2023/12/20 06:58:13;;;;;;;2.50;1.40;;;7.80;71.70;;;;;;5052745;28;20548;-83
2023/12/20 07:00:41;;;;;;;3.60;1.77;;;7.80;72.10;;;;;;5052593;28;20218;-83
2023/12/20 07:03:09;;;;;;;2.55;1.52;;;7.70;72.40;;;;;;5052900;28;20182;-83
2023/12/20 07:05:37;;;;;;;2.35;1.30;;;7.70;72.80;;;;;;5052019;28;20187;-83
2023/12/20 07:08:06;;;;;;;2.30;1.20;;;7.60;73.00;;;;;;5052668;28;20222;-83
2023/12/20 07:10:33;;;;;;;4.22;1.70;;;7.70;73.20;;;;;;5051945;28;20222;-85
2023/12/20 07:13:00;;;;;;;2.90;1.50;;;7.70;73.10;;;;;;5052273;28;20198;-84
2023/12/20 07:15:29;;;;;;;2.90;1.80;;;7.70;73.20;;;;;;5051651;28;20650;-85
2023/12/20 07:18:11;;;;;;;2.67;1.25;;;7.60;73.00;;;;;;5041954;28;20191;-85
2023/12/20 07:20:38;;;;;;;2.65;1.25;;;7.60;73.00;;;;;;5039689;28;20245;-85
2023/12/20 07:23:05;;;;;;;2.40;1.20;;;7.60;73.00;;;;;;5046432;28;20567;-82
2023/12/20 07:25:33;;;;;;;3.22;1.10;;;7.50;73.10;;;;;;5043316;28;20312;-83
2023/12/20 07:28:00;;;;;;;2.13;1.05;;;7.60;73.60;;;;;;5050114;28;20222;-84
2023/12/20 07:30:28;;;;;;;2.85;1.50;;;7.50;73.20;;;;;;5046734;28;20199;-83
2023/12/20 07:33:00;;;;;;;2.65;1.30;;;7.60;73.10;;;;;;5036221;28;20313;-85
2023/12/20 07:35:27;;;;;;;2.40;1.00;;;7.60;72.60;;;;;;5046670;28;20209;-83
2023/12/20 07:37:54;;;;;;;3.15;1.20;;;7.70;72.60;;;;;;5035909;28;20666;-84
2023/12/20 07:40:21;;;;;;;2.60;1.10;;;7.60;72.30;;;;;;5035890;28;20282;-84
2023/12/20 07:42:48;;;;;;;2.25;0.90;;;7.60;72.40;;;;;;5062178;28;20199;-83
2023/12/20 07:45:16;;;;;;;2.85;1.38;;;7.50;72.30;;;;;;5048234;28;20298;-82
2023/12/20 07:47:44;;;;;;;2.35;1.13;;;7.50;72.30;;;;;;5041132;28;20269;-83
2023/12/20 07:50:16;;;;;;;2.53;1.30;;;7.50;72.20;;;;;;5049519;28;20218;-83
2023/12/20 07:52:48;;;;;;;2.10;0.80;;;7.50;72.10;;;;;;5049919;28;20269;-82
2023/12/20 07:55:15;;;;;;;2.25;0.90;;;7.50;72.40;;;;;;5030572;28;20291;-82
2023/12/20 07:57:44;;;;;;;2.28;1.10;;;7.50;72.20;;;;;;5040020;28;20258;-83
2023/12/20 08:00:12;;;;;;;2.00;0.90;;;7.50;71.90;;;;;;5050147;28;20287;-83
2023/12/20 08:02:39;;;;;;;2.20;0.90;;;7.40;72.00;;;;;;5039170;28;20300;-82
2023/12/20 08:05:09;;;;;;;2.03;1.10;;;7.40;72.20;;;;;;5050202;28;20631;-82
2023/12/20 08:07:36;;;;;;;1.75;0.75;;;7.40;72.50;;;;;;5039240;28;20218;-82
2023/12/20 08:10:03;;;;;;;1.90;0.90;;;7.40;72.70;;;;;;5050207;28;20282;-83
2023/12/20 08:12:30;;;;;;;2.30;0.75;;;7.40;72.70;;;;;;5055818;28;20660;-82
2023/12/20 08:14:57;;;;;;;2.13;1.20;;;7.40;72.60;;;;;;5049817;28;20257;-82
2023/12/20 08:17:31;;;;;;;2.15;0.90;;;7.40;72.70;;;;;;5056067;28;20230;-82
2023/12/20 08:19:59;;;;;;;1.70;0.70;;;7.40;73.10;;;;;;5049714;28;20221;-82
2023/12/20 08:22:27;;;;;;;2.35;1.00;;;7.30;73.20;;;;;;5055478;28;20954;-82
2023/12/20 08:24:54;;;;;;;2.92;1.00;;;7.30;73.20;;;;;;5049543;28;20187;-81
2023/12/20 08:27:23;;;;;;;1.88;0.70;;;7.40;73.20;;;;;;5055043;28;20378;-81
2023/12/20 08:29:50;;;;;;;2.20;0.95;;;7.40;73.50;;;;;;5049546;28;20634;-82
2023/12/20 08:32:17;;;;;;;2.00;1.02;;;7.40;73.20;;;;;;5054608;28;20218;-81
2023/12/20 08:34:44;;;;;;;2.00;0.85;;;7.40;73.00;;;;;;5050553;28;20222;-79
2023/12/20 08:37:11;;;;;;;1.75;0.77;;;7.40;72.90;;;;;;5053845;28;20222;-81
2023/12/20 08:39:39;;;;;;;1.70;0.65;;;7.40;73.00;;;;;;5038223;28;20274;-81
2023/12/20 08:42:07;;;;;;;2.00;0.80;;;7.40;73.10;;;;;;5032453;28;20235;-81
2023/12/20 08:44:34;;;;;;;1.70;0.60;;;7.50;73.10;;;;;;5031825;28;20249;-81
2023/12/20 08:47:01;;;;;;;2.17;1.00;;;7.50;73.00;;;;;;5031289;28;20325;-81
2023/12/20 08:49:33;;;;;;;1.80;0.70;;;7.50;72.70;;;;;;5032554;28;20615;-81
2023/12/20 08:52:01;;;;;;;8.00;1.58;;;7.50;72.70;;;;;;5030697;28;20321;-81
2023/12/20 08:54:28;;;;;;;2.70;0.70;;;7.50;72.50;;;;;;5032524;28;20617;-81
2023/12/20 08:56:57;;;;;;;1.90;0.70;;;7.50;72.60;;;;;;5029682;28;20576;-81
2023/12/20 08:59:45;;;;;;;1.70;0.77;;;7.50;72.60;;;;;;5035351;28;20242;-81
2023/12/20 09:02:16;;;;;;;1.70;0.70;;;7.50;72.60;;;;;;5039161;28;20227;-81
2023/12/20 09:04:44;;;;;;;1.70;0.60;;;7.50;72.60;;;;;;5038708;28;20253;-81
2023/12/20 09:07:23;;;;;;;2.10;1.02;;;7.50;72.90;;;;;;5050420;28;20272;-81
2023/12/20 09:09:50;;;;;;;1.80;0.70;;;7.50;73.10;;;;;;5049741;28;20748;-82
2023/12/20 09:12:19;;;;;;;1.73;0.75;;;7.50;72.80;;;;;;5052081;28;20312;-81
2023/12/20 09:14:46;;;;;;;2.08;0.88;;;7.60;72.80;;;;;;5049433;28;20187;-82
2023/12/20 09:17:14;;;;;;;2.45;1.00;;;7.60;72.70;;;;;;5043570;28;20313;-81
2023/12/20 09:19:45;;;;;;;3.10;1.00;;;7.60;72.80;;;;;;5050512;28;20270;-81
2023/12/20 09:22:13;;;;;;;4.05;0.90;;;7.60;72.80;;;;;;5035639;28;20304;-81
2023/12/20 09:24:40;;;;;;;1.90;0.80;;;7.70;72.70;;;;;;5033546;28;20226;-82
2023/12/20 09:27:09;;;;;;;2.08;0.80;;;7.70;72.90;;;;;;5030829;28;20254;-81
2023/12/20 09:29:37;;;;;;;3.35;1.98;;;7.70;72.80;;;;;;5046321;28;20234;-82
2023/12/20 09:32:09;;;;;;;1.80;0.70;;;7.70;73.00;;;;;;5035909;28;20686;-81
2023/12/20 09:34:37;;;;;;;2.22;0.90;;;7.70;73.10;;;;;;5041713;28;20218;-81
2023/12/20 09:37:05;;;;;;;2.00;0.82;;;7.70;72.90;;;;;;5036306;28;20223;-81
2023/12/20 09:39:32;;;;;;;1.98;0.90;;;7.80;73.00;;;;;;5033137;28;20191;-82
2023/12/20 09:42:02;;;;;;;3.90;1.20;;;7.80;73.00;;;;;;5032197;28;20226;-81
2023/12/20 09:44:30;;;;;;;2.70;1.00;;;7.90;72.90;;;;;;5037038;28;20298;-81
2023/12/20 09:47:02;;;;;;;2.45;0.80;;;7.90;72.50;;;;;;5036228;28;20230;-81
2023/12/20 09:49:29;;;;;;;2.10;0.80;;;7.90;72.80;;;;;;5046802;28;20538;-81
2023/12/20 09:51:57;;;;;;;2.08;0.82;;;7.90;72.70;;;;;;5035339;28;20639;-81
2023/12/20 09:54:25;;;;;;;2.83;1.20;;;7.90;72.80;;;;;;5038056;28;20222;-80
2023/12/20 09:56:52;;;;;;;1.98;0.75;;;7.90;72.60;;;;;;5036091;28;20659;-80
2023/12/20 09:59:19;;;;;;;1.80;0.75;;;8.00;72.60;;;;;;5046755;28;20194;-80
2023/12/20 10:01:46;;;;;;;1.92;0.68;;;8.00;73.20;;;;;;5039372;28;20321;-80
2023/12/20 10:04:14;;;;;;;2.28;0.90;;;8.00;72.30;;;;;;5041304;28;20244;-81
2023/12/20 10:06:42;;;;;;;2.15;0.98;;;8.00;72.50;;;;;;5036501;28;20334;-81
2023/12/20 10:09:10;;;;;;;3.33;1.23;;;8.00;72.60;;;;;;5036428;28;20202;-81
2023/12/20 10:11:38;;;;;;;1.80;0.80;;;8.00;72.80;;;;;;5034822;28;20239;-81
2023/12/20 10:14:05;;;;;;;1.73;0.75;;;8.00;72.70;;;;;;5035959;28;20213;-81
2023/12/20 10:16:33;;;;;;;2.05;0.90;;;8.10;72.80;;;;;;5030652;28;20311;-81
2023/12/20 10:19:02;;;;;;;1.95;0.85;;;8.10;72.90;;;;;;5045396;28;20197;-81
2023/12/20 10:21:30;;;;;;;2.17;0.90;;;8.10;72.90;;;;;;5035931;28;20302;-81
2023/12/20 10:23:58;;;;;;;1.90;0.90;;;8.10;73.20;;;;;;5043030;28;20289;-81
2023/12/20 10:26:26;;;;;;;2.08;0.82;;;8.20;73.40;;;;;;5035883;28;20301;-81
2023/12/20 10:28:55;;;;;;;2.30;0.75;;;8.20;73.30;;;;;;5043029;28;20278;-80
2023/12/20 10:31:34;;;;;;;2.03;0.88;;;8.20;73.70;;;;;;5037296;28;20639;-80
2023/12/20 10:34:03;;;;;;;2.08;0.88;;;8.20;73.90;;;;;;5052039;28;20711;-80
2023/12/20 10:36:33;;;;;;;2.83;0.90;;;8.20;74.00;;;;;;5039023;28;20299;-79
2023/12/20 10:39:01;;;;;;;3.85;1.17;;;8.30;74.20;;;;;;5058578;28;20475;-80
2023/12/20 10:41:29;;;;;;;2.00;0.90;;;8.30;74.10;;;;;;5039002;28;20322;-80
2023/12/20 10:43:59;;;;;;;2.72;1.15;;;8.40;73.70;;;;;;5027147;28;20597;-80
2023/12/20 10:46:28;;;;;;;2.08;0.90;;;8.40;73.90;;;;;;5007730;28;20746;-79
2023/12/20 10:48:56;;;;;;;1.80;0.90;;;8.40;73.90;;;;;;5041039;28;20527;-78
2023/12/20 10:51:26;;;;;;;2.13;1.00;;;8.50;73.70;;;;;;5032335;28;20179;-79
2023/12/20 10:53:56;;;;;;;1.80;0.80;;;8.50;73.40;;;;;;5039259;28;20198;-79
2023/12/20 10:56:23;;;;;;;1.70;0.70;;;8.50;73.60;;;;;;5030035;28;20677;-80
2023/12/20 10:58:51;;;;;;;2.33;0.70;;;8.50;73.70;;;;;;5044514;28;20226;-80
2023/12/20 11:01:20;;;;;;;1.90;0.82;;;8.50;73.60;;;;;;5043694;28;20270;-80
2023/12/20 11:03:50;;;;;;;1.92;0.82;;;8.50;73.30;;;;;;5047938;28;20288;-80
2023/12/20 11:06:29;;;;;;;3.65;0.90;;;8.50;73.20;;;;;;5040503;28;20274;-80
2023/12/20 11:09:09;;;;;;;1.70;0.70;;;8.60;73.50;;;;;;5048741;28;20221;-79
2023/12/20 11:11:43;;;;;;;1.70;0.80;;;8.60;73.10;;;;;;5045201;28;20363;-81
2023/12/20 11:14:17;;;;;;;1.85;0.70;;;8.60;73.00;;;;;;5050884;28;20210;-81
2023/12/20 11:16:44;;;;;;;1.70;0.82;;;8.60;72.80;;;;;;5044888;28;20224;-81
2023/12/20 11:19:15;;;;;;;2.05;0.90;;;8.60;73.20;;;;;;5050692;28;20257;-79
2023/12/20 11:21:42;;;;;;;2.70;1.00;;;8.70;73.50;;;;;;5048463;28;20245;-80
2023/12/20 11:24:11;;;;;;;2.38;0.80;;;8.70;73.20;;;;;;5054291;28;20253;-78
2023/12/20 11:26:38;;;;;;;1.70;0.60;;;8.70;73.00;;;;;;5044975;28;20617;-79
2023/12/20 11:29:35;;;;;;;1.80;0.70;;;8.70;72.80;;;;;;5041571;28;20980;-79
2023/12/20 11:32:04;;;;;;;9.15;4.53;;;8.70;72.80;;;;;;5048272;28;20696;-79
2023/12/20 11:34:34;;;;;;;2.00;0.82;;;8.80;73.30;;;;;;5054145;28;20305;-80
2023/12/20 11:37:01;;;;;;;2.10;0.90;;;8.80;73.20;;;;;;5048351;28;20282;-79
2023/12/20 11:39:31;;;;;;;1.80;0.80;;;8.90;73.20;;;;;;5041735;28;20301;-80
2023/12/20 11:42:04;;;;;;;2.30;0.70;;;8.90;73.10;;;;;;5047464;28;20849;-79
2023/12/20 11:44:32;;;;;;;2.10;0.90;;;8.90;73.20;;;;;;5027762;28;20761;-80
2023/12/20 11:46:59;;;;;;;2.58;1.00;;;9.00;73.10;;;;;;5027460;28;20712;-80
2023/12/20 11:49:29;;;;;;;1.90;0.77;;;9.00;73.00;;;;;;5033858;28;20321;-80
2023/12/20 11:51:58;;;;;;;1.70;0.63;;;9.00;73.20;;;;;;5031680;28;20306;-80
2023/12/20 11:54:25;;;;;;;2.20;0.90;;;8.90;72.80;;;;;;5038829;28;20214;-79
2023/12/20 11:56:53;;;;;;;2.13;1.10;;;8.90;73.10;;;;;;5039878;28;20274;-80
2023/12/20 11:59:20;;;;;;;1.70;0.70;;;8.90;73.60;;;;;;5054134;28;20301;-80
2023/12/20 12:01:51;;;;;;;1.90;0.93;;;8.90;73.40;;;;;;5048270;28;20251;-80
2023/12/20 12:04:18;;;;;;;2.03;0.80;;;8.90;73.20;;;;;;5053380;28;20291;-79
2023/12/20 12:06:46;;;;;;;2.65;1.00;;;8.90;73.50;;;;;;5047845;28;20237;-80
2023/12/20 12:09:13;;;;;;;2.15;0.90;;;8.90;73.60;;;;;;5038296;28;20704;-80
2023/12/20 12:11:40;;;;;;;1.95;0.82;;;8.90;73.90;;;;;;5049088;28;20230;-80
2023/12/20 12:14:08;;;;;;;1.90;0.85;;;8.90;74.10;;;;;;5052089;28;20376;-79
2023/12/20 12:16:36;;;;;;;2.10;0.90;;;9.00;74.30;;;;;;5048766;28;20282;-80
2023/12/20 12:19:05;;;;;;;1.80;0.80;;;9.00;74.40;;;;;;5052867;28;20312;-80
2023/12/20 12:21:32;;;;;;;2.58;1.10;;;9.00;75.20;;;;;;5028211;28;20220;-80
2023/12/20 12:24:08;;;;;;;1.70;0.80;;;9.00;74.30;;;;;;5031551;28;20712;-80
2023/12/20 12:26:38;;;;;;;2.00;0.90;;;8.90;74.70;;;;;;5030131;28;20595;-80
2023/12/20 12:29:10;;;;;;;1.90;0.88;;;8.90;75.00;;;;;;5032899;28;20752;-80
2023/12/20 12:31:38;;;;;;;2.00;1.02;;;8.90;74.90;;;;;;5029849;28;20653;-80
2023/12/20 12:34:09;;;;;;;1.90;0.70;;;8.90;74.70;;;;;;5031065;28;20218;-80
2023/12/20 12:36:41;;;;;;;1.80;0.75;;;8.90;75.00;;;;;;5049192;28;20541;-80
2023/12/20 12:39:08;;;;;;;3.15;1.42;;;8.90;74.90;;;;;;5037319;28;20222;-80
2023/12/20 12:41:37;;;;;;;2.78;1.10;;;9.00;75.20;;;;;;5037936;28;20553;-80
2023/12/20 12:44:04;;;;;;;2.40;1.10;;;9.00;75.20;;;;;;5030460;28;20260;-80
2023/12/20 12:46:33;;;;;;;2.53;1.40;;;8.90;74.90;;;;;;5029759;28;20681;-80
2023/12/20 12:49:00;;;;;;;2.80;1.50;;;8.90;74.90;;;;;;5030788;28;20219;-80
2023/12/20 12:51:28;;;;;;;3.33;1.70;;;8.90;74.30;;;;;;5030369;28;20286;-81
2023/12/20 12:53:57;;;;;;;4.97;1.65;;;9.00;74.30;;;;;;5029761;28;20226;-80
2023/12/20 12:56:25;;;;;;;3.30;1.50;;;8.90;73.70;;;;;;5042428;28;20252;-80
2023/12/20 12:58:55;;;;;;;2.53;1.40;;;8.90;72.90;;;;;;5049855;28;20317;-80
2023/12/20 13:01:27;;;;;;;2.60;1.30;;;8.90;73.10;;;;;;5056744;28;20209;-79
2023/12/20 13:03:55;;;;;;;2.97;1.50;;;8.90;73.10;;;;;;5053413;28;20218;-80